Time;durP1;ratioP1;P1;durP2;ratioP2;P2;SDS_P1;SDS_P2;PMS_P1;PMS_P2;Temp;Humidity;BMP_temperature;BMP_pressure;BME280_temperature;BME280_humidity;BME280_pressure;Samples;Min_cycle;Max_cycle;Signal;HPM_P1;HPM_P2
2022/07/10 00:04:27;;;;;;;17.90;13.38;;;;;;;;;;10353087;28;20088;-73
2022/07/10 00:09:28;;;;;;;21.45;13.45;;;;;;;;;;10369585;28;20052;-75
2022/07/10 00:14:28;;;;;;;17.77;13.20;;;;;;;;;;10342467;28;20042;-76
2022/07/10 00:19:28;;;;;;;22.85;13.50;;;;;;;;;;10377728;28;20318;-76
2022/07/10 00:24:29;;;;;;;18.42;13.38;;;;;;;;;;10378605;28;20033;-75
2022/07/10 00:29:29;;;;;;;20.90;12.73;;;;;;;;;;10360862;28;20132;-73
2022/07/10 00:34:29;;;;;;;19.80;14.75;;;;;;;;;;10391446;28;20038;-74
2022/07/10 00:39:29;;;;;;;21.42;14.70;;;;;;;;;;10377220;28;20061;-76
2022/07/10 00:44:30;;;;;;;18.92;14.10;;;;;;;;;;10360840;28;20034;-74
2022/07/10 00:49:30;;;;;;;23.52;15.02;;;;;;;;;;10377663;28;20077;-74
2022/07/10 00:54:31;;;;;;;19.65;14.60;;;;;;;;;;10377709;28;20049;-73
2022/07/10 00:59:31;;;;;;;21.27;13.55;;;;;;;;;;10359685;28;20129;-74
2022/07/10 01:04:32;;;;;;;23.20;13.50;;;;;;;;;;10359650;28;20493;-74
2022/07/10 01:09:33;;;;;;;20.13;13.80;;;;;;;;;;10376979;28;20034;-73
2022/07/10 01:14:35;;;;;;;22.17;14.77;;;;;;;;;;10359081;28;20029;-74
2022/07/10 01:19:35;;;;;;;25.38;14.82;;;;;;;;;;10375337;28;20052;-73
2022/07/10 01:24:36;;;;;;;20.30;13.83;;;;;;;;;;10357740;28;20038;-74
2022/07/10 01:29:36;;;;;;;18.63;12.48;;;;;;;;;;10359121;28;20273;-73
2022/07/10 01:34:36;;;;;;;18.13;12.50;;;;;;;;;;10358325;28;20184;-76
2022/07/10 01:39:37;;;;;;;19.73;12.98;;;;;;;;;;10376115;28;20627;-74
2022/07/10 01:44:37;;;;;;;19.13;12.13;;;;;;;;;;10374385;28;20539;-75
2022/07/10 01:49:37;;;;;;;19.42;12.95;;;;;;;;;;10357731;28;20036;-75
2022/07/10 01:54:38;;;;;;;20.25;13.30;;;;;;;;;;10374022;28;20088;-76
2022/07/10 01:59:38;;;;;;;17.92;11.80;;;;;;;;;;10373881;28;20049;-75
2022/07/10 02:04:41;;;;;;;18.33;12.73;;;;;;;;;;10375229;28;20041;-74
2022/07/10 02:09:42;;;;;;;20.00;11.35;;;;;;;;;;10357151;28;20030;-76
2022/07/10 02:14:42;;;;;;;24.35;12.23;;;;;;;;;;10373318;28;20411;-74
2022/07/10 02:19:42;;;;;;;20.90;13.43;;;;;;;;;;10373694;28;20092;-75
2022/07/10 02:24:43;;;;;;;16.03;11.50;;;;;;;;;;10372843;28;20036;-75
2022/07/10 02:29:43;;;;;;;22.33;12.40;;;;;;;;;;10372672;28;20034;-76
2022/07/10 02:34:44;;;;;;;15.80;11.55;;;;;;;;;;10355698;28;20038;-76
2022/07/10 02:39:44;;;;;;;17.45;12.40;;;;;;;;;;10372184;28;20034;-75
2022/07/10 02:44:44;;;;;;;18.55;12.77;;;;;;;;;;10372047;28;20121;-74
2022/07/10 02:49:44;;;;;;;16.98;11.55;;;;;;;;;;10371784;28;20092;-75
2022/07/10 02:54:45;;;;;;;18.52;13.43;;;;;;;;;;10371831;28;20041;-74
2022/07/10 02:59:45;;;;;;;19.23;12.98;;;;;;;;;;10371387;28;20042;-73
2022/07/10 03:04:46;;;;;;;23.30;12.65;;;;;;;;;;10372759;28;20125;-74
2022/07/10 03:09:46;;;;;;;20.05;12.30;;;;;;;;;;10354937;28;20040;-74
2022/07/10 03:14:46;;;;;;;19.80;12.52;;;;;;;;;;10370901;28;20416;-74
2022/07/10 03:19:46;;;;;;;16.80;12.00;;;;;;;;;;10370659;28;20109;-75
2022/07/10 03:24:47;;;;;;;18.95;11.43;;;;;;;;;;10354492;28;20073;-75
2022/07/10 03:29:47;;;;;;;15.83;11.27;;;;;;;;;;10370364;28;20041;-75
2022/07/10 03:34:47;;;;;;;20.38;10.95;;;;;;;;;;10370026;28;20097;-74
2022/07/10 03:39:48;;;;;;;14.68;11.48;;;;;;;;;;10370249;28;20098;-74
2022/07/10 03:44:48;;;;;;;18.60;11.23;;;;;;;;;;10370156;28;20120;-74
2022/07/10 03:49:49;;;;;;;15.70;11.60;;;;;;;;;;10369310;28;20555;-73
2022/07/10 03:54:49;;;;;;;25.23;12.15;;;;;;;;;;10371459;28;20030;-74
2022/07/10 03:59:50;;;;;;;15.98;10.77;;;;;;;;;;10353251;28;20069;-75
2022/07/10 04:04:51;;;;;;;20.00;11.38;;;;;;;;;;10369599;28;20042;-74
2022/07/10 04:09:51;;;;;;;14.73;10.35;;;;;;;;;;10369699;28;20069;-72
2022/07/10 04:14:52;;;;;;;15.30;10.13;;;;;;;;;;10369508;28;20077;-74
2022/07/10 04:19:52;;;;;;;21.40;11.67;;;;;;;;;;10369245;28;20033;-74
2022/07/10 04:24:52;;;;;;;14.77;10.02;;;;;;;;;;10352975;28;20117;-74
2022/07/10 04:29:53;;;;;;;14.88;9.65;;;;;;;;;;10369129;28;20025;-73
2022/07/10 04:34:56;;;;;;;20.55;9.45;;;;;;;;;;10352548;28;20101;-74
2022/07/10 04:39:56;;;;;;;10.60;7.80;;;;;;;;;;10370281;28;20029;-74
2022/07/10 04:44:57;;;;;;;9.53;6.17;;;;;;;;;;10352450;28;20037;-74
2022/07/10 04:49:57;;;;;;;8.82;6.72;;;;;;;;;;10368599;28;20260;-75
2022/07/10 04:54:57;;;;;;;8.80;6.97;;;;;;;;;;10368738;28;20495;-75
2022/07/10 04:59:57;;;;;;;10.70;6.07;;;;;;;;;;10372945;28;20115;-74
2022/07/10 05:04:58;;;;;;;10.10;5.97;;;;;;;;;;10377257;28;20043;-75
2022/07/10 05:09:58;;;;;;;9.15;6.55;;;;;;;;;;10375989;28;20526;-74
2022/07/10 05:14:59;;;;;;;11.43;6.47;;;;;;;;;;10375349;28;20030;-76
2022/07/10 05:20:00;;;;;;;8.63;6.07;;;;;;;;;;10358892;28;20293;-74
2022/07/10 05:25:00;;;;;;;9.65;5.97;;;;;;;;;;10392165;28;20077;-74
2022/07/10 05:30:00;;;;;;;8.35;5.75;;;;;;;;;;10366823;28;20030;-76
2022/07/10 05:35:00;;;;;;;6.50;5.78;;;;;;;;;;10358319;28;20107;-74
2022/07/10 05:40:01;;;;;;;11.13;5.22;;;;;;;;;;10374599;28;20030;-75
2022/07/10 05:45:01;;;;;;;10.13;5.28;;;;;;;;;;10374915;28;20030;-75
2022/07/10 05:50:02;;;;;;;12.10;5.07;;;;;;;;;;10373980;28;20418;-74
2022/07/10 05:55:02;;;;;;;7.05;4.90;;;;;;;;;;10357873;28;20029;-75
2022/07/10 06:00:04;;;;;;;8.80;5.22;;;;;;;;;;10357353;28;20507;-74
2022/07/10 06:05:05;;;;;;;8.32;4.43;;;;;;;;;;10373611;28;20088;-76
2022/07/10 06:10:06;;;;;;;4.90;3.88;;;;;;;;;;10356605;28;20173;-75
2022/07/10 06:15:06;;;;;;;8.73;4.28;;;;;;;;;;10373096;28;20113;-74
2022/07/10 06:20:07;;;;;;;7.88;3.60;;;;;;;;;;10372931;28;20085;-75
2022/07/10 06:25:07;;;;;;;9.43;5.10;;;;;;;;;;10356484;28;20026;-74
2022/07/10 06:30:08;;;;;;;6.38;3.50;;;;;;;;;;10373811;28;20038;-75
2022/07/10 06:35:08;;;;;;;9.27;3.40;;;;;;;;;;10355796;28;20030;-75
2022/07/10 06:40:11;;;;;;;4.18;3.13;;;;;;;;;;10372624;28;20112;-74
2022/07/10 06:45:11;;;;;;;5.10;3.15;;;;;;;;;;10372049;28;20049;-75
2022/07/10 06:50:12;;;;;;;8.32;2.85;;;;;;;;;;10355470;28;20523;-75
2022/07/10 06:55:12;;;;;;;3.05;2.40;;;;;;;;;;10372954;28;20095;-75
2022/07/10 07:00:13;;;;;;;4.67;2.77;;;;;;;;;;10370960;28;20042;-75
2022/07/10 07:05:13;;;;;;;3.57;2.50;;;;;;;;;;10372566;28;20117;-73
2022/07/10 07:10:14;;;;;;;6.63;3.28;;;;;;;;;;10354569;28;20348;-75
2022/07/10 07:15:16;;;;;;;6.40;3.63;;;;;;;;;;10354034;28;20033;-74
2022/07/10 07:25:36;;;;;;;4.93;2.25;;;;;;;;;;10372092;28;20027;-73
2022/07/10 07:30:36;;;;;;;5.53;2.60;;;;;;;;;;10371707;28;20080;-72
2022/07/10 07:35:37;;;;;;;5.05;2.60;;;;;;;;;;10369819;28;20026;-75
2022/07/10 07:40:37;;;;;;;7.35;2.78;;;;;;;;;;10370278;28;20124;-74
2022/07/10 07:45:38;;;;;;;7.18;2.30;;;;;;;;;;10353321;28;20030;-74
2022/07/10 07:50:38;;;;;;;9.33;3.20;;;;;;;;;;10366683;28;20120;-74
2022/07/10 07:55:39;;;;;;;3.08;2.05;;;;;;;;;;10369510;28;20076;-74
2022/07/10 08:00:40;;;;;;;3.33;2.08;;;;;;;;;;10361325;28;20038;-75
2022/07/10 08:05:40;;;;;;;2.80;2.30;;;;;;;;;;10369649;28;20128;-74
2022/07/10 08:10:40;;;;;;;2.40;2.10;;;;;;;;;;10369309;28;20530;-74
2022/07/10 08:15:40;;;;;;;3.13;2.05;;;;;;;;;;10369211;28;20436;-74
2022/07/10 08:20:41;;;;;;;5.38;2.22;;;;;;;;;;10352526;28;20092;-74
2022/07/10 08:25:41;;;;;;;3.60;2.20;;;;;;;;;;10368667;28;20109;-74
2022/07/10 08:30:42;;;;;;;2.17;1.95;;;;;;;;;;10352487;28;20034;-74
2022/07/10 08:35:43;;;;;;;4.43;1.90;;;;;;;;;;10358207;28;20030;-73
2022/07/10 08:40:44;;;;;;;2.55;1.83;;;;;;;;;;10360524;28;20022;-75
2022/07/10 08:45:45;;;;;;;5.72;1.65;;;;;;;;;;10360355;28;20488;-74
2022/07/10 08:50:47;;;;;;;4.97;1.58;;;;;;;;;;10360013;28;20036;-75
2022/07/10 08:55:47;;;;;;;3.72;2.13;;;;;;;;;;10359597;28;20487;-73
2022/07/10 09:00:47;;;;;;;4.97;2.65;;;;;;;;;;10376789;28;20053;-74
2022/07/10 09:05:48;;;;;;;5.60;2.13;;;;;;;;;;10359618;28;20132;-74
2022/07/10 09:10:48;;;;;;;3.47;2.35;;;;;;;;;;10375402;28;20034;-73
2022/07/10 09:15:49;;;;;;;2.23;1.50;;;;;;;;;;10359133;28;20356;-74
2022/07/10 09:20:49;;;;;;;7.43;1.90;;;;;;;;;;10359074;28;20026;-75
2022/07/10 09:25:50;;;;;;;3.20;1.93;;;;;;;;;;10376349;28;20096;-75
2022/07/10 09:30:51;;;;;;;6.95;1.70;;;;;;;;;;10385426;28;20280;-74
2022/07/10 09:36:13;;;;;;;4.32;1.80;;;;;;;;;;10375855;28;20418;-73
2022/07/10 09:41:34;;;;;;;4.07;1.60;;;;;;;;;;10374668;28;20510;-75
2022/07/10 09:46:36;;;;;;;5.28;1.90;;;;;;;;;;10380766;28;20037;-73
2022/07/10 09:51:36;;;;;;;3.97;1.50;;;;;;;;;;10373745;28;20029;-74
2022/07/10 09:56:42;;;;;;;4.57;1.65;;;;;;;;;;10373910;28;20030;-74
2022/07/10 10:01:52;;;;;;;2.88;1.20;;;;;;;;;;10357001;28;20065;-75
2022/07/10 10:06:53;;;;;;;2.22;1.30;;;;;;;;;;10374693;28;20034;-73
2022/07/10 10:12:02;;;;;;;7.15;1.48;;;;;;;;;;10357547;28;20546;-74
2022/07/10 10:17:04;;;;;;;1.17;1.10;;;;;;;;;;10373295;28;20522;-74
2022/07/10 10:22:05;;;;;;;4.43;1.30;;;;;;;;;;10372416;28;20483;-74
2022/07/10 10:27:06;;;;;;;1.85;1.30;;;;;;;;;;10373028;28;20030;-74
2022/07/10 10:32:07;;;;;;;1.05;0.95;;;;;;;;;;10373456;28;20088;-74
2022/07/10 10:37:26;;;;;;;3.85;1.50;;;;;;;;;;10371778;28;20080;-74
2022/07/10 10:42:34;;;;;;;2.08;1.38;;;;;;;;;;10371881;28;20034;-74
2022/07/10 10:47:53;;;;;;;5.35;1.30;;;;;;;;;;10373228;28;20029;-74
2022/07/10 10:53:02;;;;;;;3.65;1.40;;;;;;;;;;10371355;28;20069;-74
2022/07/10 10:58:14;;;;;;;3.70;1.67;;;;;;;;;;10354835;28;20029;-75
2022/07/10 11:03:15;;;;;;;1.83;1.38;;;;;;;;;;10355311;28;20050;-74
2022/07/10 11:08:35;;;;;;;6.95;2.55;;;;;;;;;;10356107;28;20445;-75
2022/07/10 11:13:36;;;;;;;7.22;3.22;;;;;;;;;;10354881;28;20034;-75
2022/07/10 11:18:36;;;;;;;2.05;1.85;;;;;;;;;;10371755;28;20084;-74
2022/07/10 11:23:52;;;;;;;9.52;5.10;;;;;;;;;;10370772;28;20033;-74
2022/07/10 11:28:53;;;;;;;5.28;3.25;;;;;;;;;;10371402;28;20116;-74
2022/07/10 11:33:54;;;;;;;5.95;2.35;;;;;;;;;;10370417;28;20133;-74
2022/07/10 11:39:00;;;;;;;13.13;6.05;;;;;;;;;;10354830;28;20034;-74
2022/07/10 11:44:01;;;;;;;10.32;2.38;;;;;;;;;;10370520;28;20037;-74
2022/07/10 11:49:05;;;;;;;2.60;2.08;;;;;;;;;;10371916;28;20500;-75
2022/07/10 11:54:13;;;;;;;6.63;2.55;;;;;;;;;;10369761;28;20098;-74
2022/07/10 11:59:14;;;;;;;3.55;1.90;;;;;;;;;;10353252;28;20052;-75
2022/07/10 12:04:18;;;;;;;6.03;2.47;;;;;;;;;;10369483;28;20130;-75
2022/07/10 12:09:22;;;;;;;3.90;2.20;;;;;;;;;;10370232;28;20040;-75
2022/07/10 12:14:22;;;;;;;4.65;1.80;;;;;;;;;;10370560;28;20038;-75
2022/07/10 12:19:25;;;;;;;4.00;2.05;;;;;;;;;;10369368;28;20033;-74
2022/07/10 12:24:26;;;;;;;6.22;3.05;;;;;;;;;;10369167;28;20030;-74
2022/07/10 12:29:27;;;;;;;3.75;1.85;;;;;;;;;;10352582;28;20040;-75
2022/07/10 12:34:39;;;;;;;2.70;2.30;;;;;;;;;;10369972;28;20407;-74
2022/07/10 12:39:47;;;;;;;4.38;2.08;;;;;;;;;;10368778;28;20033;-75
2022/07/10 12:44:47;;;;;;;2.45;1.65;;;;;;;;;;10370202;28;20029;-73
2022/07/10 12:49:55;;;;;;;3.08;1.63;;;;;;;;;;10368704;28;20038;-74
2022/07/10 12:55:06;;;;;;;4.45;2.13;;;;;;;;;;10352149;28;20044;-74
2022/07/10 13:00:07;;;;;;;3.45;1.27;;;;;;;;;;10360843;28;20073;-74
2022/07/10 13:05:07;;;;;;;2.85;1.40;;;;;;;;;;10368220;28;20084;-73
2022/07/10 13:10:07;;;;;;;5.77;1.67;;;;;;;;;;10368644;28;20438;-75
2022/07/10 13:15:08;;;;;;;4.53;1.73;;;;;;;;;;10368188;28;20574;-74
2022/07/10 13:20:08;;;;;;;2.37;1.40;;;;;;;;;;10369730;28;20273;-74
2022/07/10 13:25:09;;;;;;;2.35;1.00;;;;;;;;;;10358753;28;20268;-75
2022/07/10 13:30:09;;;;;;;3.67;1.40;;;;;;;;;;10376487;28;20054;-74
2022/07/10 13:35:09;;;;;;;1.40;0.88;;;;;;;;;;10374694;28;20487;-74
2022/07/10 13:40:10;;;;;;;4.15;1.15;;;;;;;;;;10358263;28;20085;-74
2022/07/10 13:45:10;;;;;;;0.95;0.88;;;;;;;;;;10358133;28;20030;-75
2022/07/10 13:50:10;;;;;;;1.63;1.30;;;;;;;;;;10374270;28;20061;-75
2022/07/10 13:55:11;;;;;;;3.30;1.10;;;;;;;;;;10357825;28;20120;-74
2022/07/10 14:00:12;;;;;;;2.67;0.82;;;;;;;;;;10366954;28;20103;-74
2022/07/10 14:05:12;;;;;;;1.77;0.90;;;;;;;;;;10357642;28;20472;-75
2022/07/10 14:10:12;;;;;;;3.83;0.90;;;;;;;;;;10374246;28;20813;-75
2022/07/10 14:15:13;;;;;;;3.40;1.38;;;;;;;;;;10373052;28;20484;-75
2022/07/10 14:20:13;;;;;;;2.40;0.90;;;;;;;;;;10373052;28;20091;-75
2022/07/10 14:25:13;;;;;;;1.67;1.08;;;;;;;;;;10372902;28;20030;-75
2022/07/10 14:30:14;;;;;;;10.68;5.38;;;;;;;;;;10373735;28;20562;-76
2022/07/10 14:35:14;;;;;;;2.72;1.05;;;;;;;;;;10372226;28;20056;-76
2022/07/10 14:40:14;;;;;;;1.15;0.98;;;;;;;;;;10372124;28;20091;-75
2022/07/10 14:45:14;;;;;;;2.03;0.98;;;;;;;;;;10372331;28;20535;-75
2022/07/10 14:50:16;;;;;;;4.10;1.45;;;;;;;;;;10355416;28;20034;-75
2022/07/10 14:55:17;;;;;;;1.67;0.90;;;;;;;;;;10371566;28;20091;-73
2022/07/10 15:00:18;;;;;;;1.45;1.10;;;;;;;;;;10371216;28;20046;-75
2022/07/10 15:05:18;;;;;;;2.10;1.00;;;;;;;;;;10371169;28;20053;-75
2022/07/10 15:10:19;;;;;;;3.50;1.30;;;;;;;;;;10370757;28;20499;-74
2022/07/10 15:15:20;;;;;;;2.67;1.00;;;;;;;;;;10370633;28;20623;-74
2022/07/10 15:20:21;;;;;;;3.63;1.35;;;;;;;;;;10370796;28;20122;-74
2022/07/10 15:25:21;;;;;;;1.33;1.02;;;;;;;;;;10385628;28;20042;-74
2022/07/10 15:30:22;;;;;;;7.80;1.50;;;;;;;;;;10353965;28;20022;-74
2022/07/10 15:35:23;;;;;;;2.60;2.38;;;;;;;;;;10354169;28;20120;-74
2022/07/10 15:40:23;;;;;;;5.32;1.50;;;;;;;;;;10370275;28;20036;-74
2022/07/10 15:45:24;;;;;;;2.10;1.17;;;;;;;;;;10353308;28;20109;-73
2022/07/10 15:50:24;;;;;;;1.83;1.17;;;;;;;;;;10353488;28;20034;-74
2022/07/10 15:55:25;;;;;;;3.10;1.27;;;;;;;;;;10369902;28;20034;-74
2022/07/10 16:00:25;;;;;;;5.85;1.58;;;;;;;;;;10369616;28;20083;-74
2022/07/10 16:05:25;;;;;;;1.57;1.00;;;;;;;;;;10353984;28;20030;-73
2022/07/10 16:10:26;;;;;;;2.88;1.60;;;;;;;;;;10370423;28;20030;-74
2022/07/10 16:15:26;;;;;;;9.73;1.83;;;;;;;;;;10369073;28;20033;-72
2022/07/10 16:20:26;;;;;;;8.50;2.00;;;;;;;;;;10352581;28;20080;-73
2022/07/10 16:30:45;;;;;;;3.03;2.22;;;;;;;;;;10370214;28;20412;-74
2022/07/10 16:35:46;;;;;;;8.10;2.05;;;;;;;;;;10352497;28;20030;-75
2022/07/10 16:40:46;;;;;;;5.13;1.60;;;;;;;;;;10352530;28;20113;-76
2022/07/10 16:45:46;;;;;;;3.20;1.30;;;;;;;;;;10352450;28;20030;-74
2022/07/10 16:50:48;;;;;;;1.45;1.25;;;;;;;;;;10352722;28;20193;-73
2022/07/10 16:55:48;;;;;;;1.50;1.20;;;;;;;;;;10373151;28;20117;-74
2022/07/10 17:00:49;;;;;;;1.55;1.40;;;;;;;;;;10376357;28;20056;-76
2022/07/10 17:05:49;;;;;;;1.90;1.10;;;;;;;;;;10375951;28;20061;-75
2022/07/10 17:10:49;;;;;;;3.38;1.40;;;;;;;;;;10375891;28;20033;-75
2022/07/10 17:15:49;;;;;;;1.48;1.38;;;;;;;;;;10377024;28;20103;-75
2022/07/10 17:20:50;;;;;;;1.70;1.10;;;;;;;;;;10375209;28;20025;-74
2022/07/10 17:25:50;;;;;;;2.40;1.27;;;;;;;;;;10376299;28;20029;-74
2022/07/10 17:30:50;;;;;;;6.57;1.60;;;;;;;;;;10374988;28;20033;-75
2022/07/10 17:35:51;;;;;;;2.85;1.50;;;;;;;;;;10374800;28;20065;-76
2022/07/10 17:40:51;;;;;;;3.35;1.58;;;;;;;;;;10358174;28;20037;-74
2022/07/10 17:45:51;;;;;;;2.37;1.60;;;;;;;;;;10375700;28;20128;-75
2022/07/10 17:50:52;;;;;;;5.20;2.25;;;;;;;;;;10374097;28;20121;-74
2022/07/10 17:55:52;;;;;;;3.63;1.70;;;;;;;;;;10374128;28;20561;-74
2022/07/10 18:00:52;;;;;;;2.93;1.80;;;;;;;;;;10375119;28;20556;-74
2022/07/10 18:05:52;;;;;;;4.28;1.88;;;;;;;;;;10358100;28;20037;-74
2022/07/10 18:10:53;;;;;;;4.80;2.42;;;;;;;;;;10358058;28;20052;-75
2022/07/10 18:16:09;;;;;;;4.13;1.73;;;;;;;;;;10357492;28;20026;-74
2022/07/10 18:21:10;;;;;;;4.10;2.20;;;;;;;;;;10373035;28;20123;-74
2022/07/10 18:26:11;;;;;;;5.07;3.00;;;;;;;;;;10357108;28;20036;-75
2022/07/10 18:31:13;;;;;;;7.25;3.65;;;;;;;;;;10356355;28;20519;-76
2022/07/10 18:36:13;;;;;;;5.45;4.15;;;;;;;;;;10372234;28;20511;-76
2022/07/10 18:41:13;;;;;;;3.83;3.47;;;;;;;;;;10382672;28;20032;-75
2022/07/10 18:46:13;;;;;;;4.67;2.90;;;;;;;;;;10372140;28;20440;-76
2022/07/10 18:51:14;;;;;;;2.95;2.22;;;;;;;;;;10371717;28;20344;-75
2022/07/10 18:56:16;;;;;;;2.65;2.22;;;;;;;;;;10355645;28;20030;-75
2022/07/10 19:01:20;;;;;;;4.55;2.20;;;;;;;;;;10354742;28;20503;-74
2022/07/10 19:06:20;;;;;;;11.00;4.57;;;;;;;;;;10354868;28;20045;-74
2022/07/10 19:11:20;;;;;;;5.00;1.90;;;;;;;;;;10371221;28;20040;-74
2022/07/10 19:16:21;;;;;;;2.20;1.67;;;;;;;;;;10370815;28;20521;-74
2022/07/10 19:21:21;;;;;;;5.57;2.07;;;;;;;;;;10372327;28;20037;-76
2022/07/10 19:26:24;;;;;;;3.15;2.22;;;;;;;;;;10371028;28;20284;-74
2022/07/10 19:31:24;;;;;;;6.47;1.88;;;;;;;;;;10379100;28;20026;-75
2022/07/10 19:36:24;;;;;;;3.15;2.25;;;;;;;;;;10369843;28;20029;-76
2022/07/10 19:41:25;;;;;;;2.10;1.90;;;;;;;;;;10370067;28;20088;-75
2022/07/10 19:46:25;;;;;;;2.13;1.80;;;;;;;;;;10370795;28;20499;-75
2022/07/10 19:51:26;;;;;;;3.40;2.10;;;;;;;;;;10370502;28;20084;-74
2022/07/10 19:56:26;;;;;;;3.13;2.20;;;;;;;;;;10370025;28;20030;-74
2022/07/10 20:01:26;;;;;;;2.20;2.00;;;;;;;;;;10353240;28;20050;-76
2022/07/10 20:06:27;;;;;;;3.60;2.38;;;;;;;;;;10370955;28;20049;-76
2022/07/10 20:11:27;;;;;;;4.15;2.05;;;;;;;;;;10370033;28;20033;-76
2022/07/10 20:16:27;;;;;;;6.65;2.28;;;;;;;;;;10369411;28;20033;-74
2022/07/10 20:21:27;;;;;;;3.28;2.50;;;;;;;;;;10370589;28;20114;-78
2022/07/10 20:26:28;;;;;;;2.30;2.10;;;;;;;;;;10369289;28;20030;-75
2022/07/10 20:31:28;;;;;;;2.25;2.03;;;;;;;;;;10374819;28;20033;-75
2022/07/10 20:41:47;;;;;;;6.05;2.25;;;;;;;;;;10378530;28;20774;-74
2022/07/10 20:46:48;;;;;;;3.22;2.53;;;;;;;;;;10376973;28;20022;-74
2022/07/10 20:51:48;;;;;;;2.58;2.38;;;;;;;;;;10376617;28;20037;-74
2022/07/10 20:56:48;;;;;;;4.32;2.70;;;;;;;;;;10360119;28;20030;-74
2022/07/10 21:01:49;;;;;;;3.05;2.75;;;;;;;;;;10376456;28;20123;-75
2022/07/10 21:06:49;;;;;;;3.53;2.58;;;;;;;;;;10376431;28;20022;-75
2022/07/10 21:11:50;;;;;;;2.55;2.35;;;;;;;;;;10376868;28;20022;-74
2022/07/10 21:16:50;;;;;;;2.65;2.42;;;;;;;;;;10375821;28;20459;-75
2022/07/10 21:21:51;;;;;;;2.43;2.23;;;;;;;;;;10376700;28;20026;-74
2022/07/10 21:26:51;;;;;;;2.75;2.00;;;;;;;;;;10376620;28;20279;-75
2022/07/10 21:31:51;;;;;;;7.63;2.10;;;;;;;;;;10358713;28;20026;-74
2022/07/10 21:36:52;;;;;;;3.33;2.50;;;;;;;;;;10375060;28;20129;-75
2022/07/10 21:41:52;;;;;;;5.78;2.47;;;;;;;;;;10373699;28;20026;-75
2022/07/10 21:46:52;;;;;;;2.65;2.30;;;;;;;;;;10374524;28;20079;-75
2022/07/10 21:51:52;;;;;;;6.03;2.30;;;;;;;;;;10374408;28;20026;-75
2022/07/10 21:56:53;;;;;;;2.17;1.98;;;;;;;;;;10374221;28;20412;-75
2022/07/10 22:01:53;;;;;;;2.13;1.50;;;;;;;;;;10374508;28;20409;-75
2022/07/10 22:06:53;;;;;;;2.47;2.10;;;;;;;;;;10357811;28;20084;-76
2022/07/10 22:11:54;;;;;;;5.78;2.50;;;;;;;;;;10374311;28;20327;-75
2022/07/10 22:16:54;;;;;;;2.47;2.00;;;;;;;;;;10373487;28;20030;-75
2022/07/10 22:21:54;;;;;;;3.33;2.13;;;;;;;;;;10357121;28;20479;-75
2022/07/10 22:26:54;;;;;;;5.00;2.13;;;;;;;;;;10356881;28;20092;-75
2022/07/10 22:31:55;;;;;;;2.13;1.92;;;;;;;;;;10357381;28;20117;-76
2022/07/10 22:36:55;;;;;;;2.70;1.95;;;;;;;;;;10356460;28;20447;-75
2022/07/10 22:41:55;;;;;;;3.83;1.80;;;;;;;;;;10372518;28;20022;-76
2022/07/10 22:46:56;;;;;;;2.10;1.60;;;;;;;;;;10372334;28;21542;-75
2022/07/10 22:51:58;;;;;;;1.63;1.35;;;;;;;;;;10372985;28;20179;-75
2022/07/10 22:56:58;;;;;;;1.63;1.52;;;;;;;;;;10371967;28;20491;-74
2022/07/10 23:01:58;;;;;;;1.60;1.40;;;;;;;;;;10371739;28;20046;-74
2022/07/10 23:06:59;;;;;;;5.40;1.70;;;;;;;;;;10371694;28;20030;-75
2022/07/10 23:11:59;;;;;;;6.32;1.92;;;;;;;;;;10355267;28;20029;-75
2022/07/10 23:17:00;;;;;;;5.72;1.73;;;;;;;;;;10371406;28;20058;-75
2022/07/10 23:22:00;;;;;;;5.07;1.83;;;;;;;;;;10371198;28;20017;-74
2022/07/10 23:27:00;;;;;;;4.82;1.92;;;;;;;;;;10354549;28;20562;-76
2022/07/10 23:32:00;;;;;;;1.75;1.60;;;;;;;;;;10370693;28;20530;-75
2022/07/10 23:37:01;;;;;;;2.40;1.73;;;;;;;;;;10370611;28;20033;-76
2022/07/10 23:42:01;;;;;;;1.92;1.42;;;;;;;;;;10370317;28;20036;-75
2022/07/10 23:47:03;;;;;;;7.35;1.52;;;;;;;;;;10353955;28;20096;-75
2022/07/10 23:52:03;;;;;;;2.60;1.70;;;;;;;;;;10353678;28;20422;-75
2022/07/10 23:57:04;;;;;;;4.15;1.95;;;;;;;;;;10369898;28;20030;-75
